M/T Havva Ana — V7RE3 — position and weather

sailwx.info

Track history (hours):
 
Tides and Currents Weather Stations Pressure Air Temp Water Temp Dewpoint Dewpoint Depression Visibility Wind Speed Wind Dir Waves Ship Positions

M/T Havva Ana

Last reported at 2017-Jun-03 21:20 UTC. Time now 2017-Jun-27 05:34 UTC.
Position N 31°20' E 032°23'.
Warning: this ship's position is 23 days out of date.

Length 124 m; draft 6.5 m.

Type: Ship. MMSI: 538003488.

Date/timePositionNaut miles runAvg speedWind from/ knotsBaromVisibWave heightAir tempDewpointWater temp
2017-Jun-03 21:20N 31°20' E 032°23'3 9.4
2017-Jun-03 21:00N 31°23' E 032°23'5 1.6
2017-Jun-03 18:09N 31°21' E 032°18'0 0.7
2017-Jun-03 18:00N 31°21' E 032°18'5 9.0
2017-Jun-03 17:30N 31°26' E 032°19'713.2
2017-Jun-03 17:00N 31°31' E 032°14'713.3
2017-Jun-03 16:27N 31°36' E 032°07'2313.3
2017-Jun-03 14:41N 31°51' E 031°47'213.3
2017-Jun-03 14:30N 31°53' E 031°45'5313.4
2017-Jun-03 10:34N 32°34' E 031°05'113.5
2017-Jun-03 10:30N 32°35' E 031°04'913.6
2017-Jun-03 09:48N 32°42' E 030°57'413.5
2017-Jun-03 09:30N 32°45' E 030°54'713.2
2017-Jun-03 09:00N 32°49' E 030°48'36613.3
2017-Jun-02 05:25N 37°26' E 025°56'511.6
2017-Jun-02 05:00N 37°30' E 025°51'612.1
2017-Jun-02 04:30N 37°35' E 025°48'612.2
2017-Jun-02 04:00N 37°41' E 025°45'612.2
2017-Jun-02 03:30N 37°46' E 025°41'612.1
2017-Jun-02 03:00N 37°52' E 025°38'11711.6
2017-Jun-01 16:54N 39°49' E 025°49'13211.5
2017-Jun-01 05:27N 40°52' E 028°21'23 1.8
2017-May-31 16:20N 40°57' E 028°51'0 0.0
2017-May-31 15:56N 40°57' E 028°51'2 0.2
2017-May-31 06:13N 40°56' E 028°54'312.1
2017-May-31 05:57N 40°55' E 028°58'511.8
2017-May-31 05:30N 40°51' E 029°03'611.9
2017-May-31 05:00N 40°50' E 029°11'4 7.5
2017-May-31 04:30N 40°51' E 029°16'0 0.9
2017-May-31 03:58N 40°51' E 029°16'0 0.0
2017-May-31 03:28N 40°51' E 029°16'0 0.0
2017-May-31 02:58N 40°51' E 029°16'0 0.0
2017-May-31 02:22N 40°51' E 029°16'0 0.0
2017-May-31 01:58N 40°51' E 029°16'0 0.0
2017-May-31 01:28N 40°51' E 029°16'0 0.0
2017-May-31 00:58N 40°51' E 029°16'0 0.0
2017-May-31 00:28N 40°51' E 029°16'0 0.0
2017-May-30 23:58N 40°51' E 029°16'0 0.0
2017-May-30 23:16N 40°51' E 029°16'0 0.0
2017-May-30 22:58N 40°51' E 029°16'0 0.0
2017-May-30 22:28N 40°51' E 029°16'0 0.0
2017-May-30 21:58N 40°51' E 029°16'0 0.0
2017-May-30 21:22N 40°51' E 029°16'0 0.0
2017-May-30 20:58N 40°51' E 029°16'0 0.0
2017-May-30 20:28N 40°51' E 029°16'0 0.0
2017-May-30 19:52N 40°51' E 029°16'0 0.0
2017-May-30 19:28N 40°51' E 029°16'0 0.0
2017-May-30 18:58N 40°51' E 029°16'0 0.0
2017-May-30 18:28N 40°51' E 029°16'0 0.0
2017-May-30 17:52N 40°51' E 029°16'0 0.0
2017-May-30 17:10N 40°51' E 029°16'0 0.0
2017-May-30 16:58N 40°51' E 029°16'0 0.0
2017-May-30 16:22N 40°51' E 029°16'0 0.0
2017-May-30 15:58N 40°51' E 029°16'0 0.0
2017-May-30 15:28N 40°51' E 029°16'0 0.0
2017-May-30 14:58N 40°51' E 029°16'0 0.0
2017-May-30 13:52N 40°51' E 029°16'0 0.0
2017-May-30 13:28N 40°51' E 029°16'0 0.0
2017-May-30 12:58N 40°51' E 029°16'0 0.0
2017-May-30 12:16N 40°51' E 029°16'0 0.0
2017-May-30 11:58N 40°51' E 029°16'0 0.0
2017-May-30 11:28N 40°51' E 029°16'0 0.0
2017-May-30 10:58N 40°51' E 029°16'0 0.0
2017-May-30 10:28N 40°51' E 029°16'0 0.0
2017-May-30 09:58N 40°51' E 029°16'0 0.0
2017-May-30 09:10N 40°51' E 029°16'0 0.0
2017-May-30 08:58N 40°51' E 029°16'0 0.0
2017-May-30 08:22N 40°51' E 029°16'0 0.0
2017-May-30 07:58N 40°51' E 029°16'0 0.0
2017-May-30 07:28N 40°51' E 029°16'0 0.0
2017-May-30 06:58N 40°51' E 029°16'0 0.0
2017-May-30 06:28N 40°51' E 029°16'0 0.0
2017-May-30 05:58N 40°51' E 029°16'0 0.0
2017-May-30 05:28N 40°51' E 029°16'0 0.0
2017-May-30 04:58N 40°51' E 029°16'0 0.0
2017-May-30 04:28N 40°51' E 029°16'0 0.0
2017-May-30 03:52N 40°51' E 029°16'0 0.0
2017-May-30 03:28N 40°51' E 029°16'0 0.0
2017-May-30 02:52N 40°51' E 029°16'0 0.0
2017-May-30 02:28N 40°51' E 029°16'0 0.0
2017-May-30 01:58N 40°51' E 029°16'0 0.0
2017-May-30 01:28N 40°51' E 029°16'0 0.0
2017-May-30 00:58N 40°51' E 029°16'0 0.0
2017-May-30 00:28N 40°51' E 029°16'0 0.0
2017-May-29 23:52N 40°51' E 029°16'0 0.0
2017-May-29 23:22N 40°51' E 029°16'0 0.0
2017-May-29 22:58N 40°51' E 029°16'0 0.0
2017-May-29 22:22N 40°51' E 029°16'0 0.0
2017-May-29 21:58N 40°51' E 029°16'0 0.0
2017-May-29 21:28N 40°51' E 029°16'0 0.0
2017-May-29 20:40N 40°51' E 029°16'0 0.0
2017-May-29 20:04N 40°51' E 029°16'0 0.0
2017-May-29 19:58N 40°51' E 029°16'0 0.0
2017-May-29 19:22N 40°51' E 029°16'0 0.0
2017-May-29 18:58N 40°51' E 029°16'0 0.0
2017-May-29 18:28N 40°51' E 029°16'0 0.0
2017-May-29 17:58N 40°51' E 029°16'0 0.0
2017-May-29 17:22N 40°51' E 029°16'0 0.0
2017-May-29 16:46N 40°51' E 029°16'0 0.0
2017-May-29 16:28N 40°51' E 029°16'0 0.0
2017-May-29 15:58N 40°51' E 029°16'0 0.0
2017-May-29 15:28N 40°51' E 029°16'0 0.0
2017-May-29 14:58N 40°51' E 029°16'0 0.0
2017-May-29 14:04N 40°51' E 029°16'0 0.0
2017-May-29 13:22N 40°51' E 029°16'0 0.0
2017-May-29 12:46N 40°51' E 029°16'0 0.0
2017-May-29 12:22N 40°51' E 029°16'0 0.0
2017-May-29 11:58N 40°51' E 029°16'1 0.4
2017-May-29 09:48N 40°51' E 029°17'0 0.0
2017-May-29 09:18N 40°51' E 029°17'0 0.0
2017-May-29 09:00N 40°51' E 029°17'  
Track history (hours):
 
Tides and Currents Weather Stations Pressure Air Temp Water Temp Dewpoint Dewpoint Depression Visibility Wind Speed Wind Dir Waves Ship Positions

M/T Havva Ana

Last reported at 2017-Jun-03 21:20 UTC. Time now 2017-Jun-27 05:34 UTC.
Position N 31°20' E 032°23'.
Warning: this ship's position is 23 days out of date.

Length 124 m; draft 6.5 m.

Type: Ship. MMSI: 538003488.

Date/timePositionNaut miles runAvg speedWind from/ knotsBaromVisibWave heightAir tempDewpointWater temp
2017-Jun-03 21:20N 31°20' E 032°23'3 9.4
2017-Jun-03 21:00N 31°23' E 032°23'5 1.6
2017-Jun-03 18:09N 31°21' E 032°18'0 0.7
2017-Jun-03 18:00N 31°21' E 032°18'5 9.0
2017-Jun-03 17:30N 31°26' E 032°19'713.2
2017-Jun-03 17:00N 31°31' E 032°14'713.3
2017-Jun-03 16:27N 31°36' E 032°07'2313.3
2017-Jun-03 14:41N 31°51' E 031°47'213.3
2017-Jun-03 14:30N 31°53' E 031°45'5313.4
2017-Jun-03 10:34N 32°34' E 031°05'113.5
2017-Jun-03 10:30N 32°35' E 031°04'913.6
2017-Jun-03 09:48N 32°42' E 030°57'413.5
2017-Jun-03 09:30N 32°45' E 030°54'713.2
2017-Jun-03 09:00N 32°49' E 030°48'36613.3
2017-Jun-02 05:25N 37°26' E 025°56'511.6
2017-Jun-02 05:00N 37°30' E 025°51'612.1
2017-Jun-02 04:30N 37°35' E 025°48'612.2
2017-Jun-02 04:00N 37°41' E 025°45'612.2
2017-Jun-02 03:30N 37°46' E 025°41'612.1
2017-Jun-02 03:00N 37°52' E 025°38'11711.6
2017-Jun-01 16:54N 39°49' E 025°49'13211.5
2017-Jun-01 05:27N 40°52' E 028°21'23 1.8
2017-May-31 16:20N 40°57' E 028°51'0 0.0
2017-May-31 15:56N 40°57' E 028°51'2 0.2
2017-May-31 06:13N 40°56' E 028°54'312.1
2017-May-31 05:57N 40°55' E 028°58'511.8
2017-May-31 05:30N 40°51' E 029°03'611.9
2017-May-31 05:00N 40°50' E 029°11'4 7.5
2017-May-31 04:30N 40°51' E 029°16'0 0.9
2017-May-31 03:58N 40°51' E 029°16'0 0.0
2017-May-31 03:28N 40°51' E 029°16'0 0.0
2017-May-31 02:58N 40°51' E 029°16'0 0.0
2017-May-31 02:22N 40°51' E 029°16'0 0.0
2017-May-31 01:58N 40°51' E 029°16'0 0.0
2017-May-31 01:28N 40°51' E 029°16'0 0.0
2017-May-31 00:58N 40°51' E 029°16'0 0.0
2017-May-31 00:28N 40°51' E 029°16'0 0.0
2017-May-30 23:58N 40°51' E 029°16'0 0.0
2017-May-30 23:16N 40°51' E 029°16'0 0.0
2017-May-30 22:58N 40°51' E 029°16'0 0.0
2017-May-30 22:28N 40°51' E 029°16'0 0.0
2017-May-30 21:58N 40°51' E 029°16'0 0.0
2017-May-30 21:22N 40°51' E 029°16'0 0.0
2017-May-30 20:58N 40°51' E 029°16'0 0.0
2017-May-30 20:28N 40°51' E 029°16'0 0.0
2017-May-30 19:52N 40°51' E 029°16'0 0.0
2017-May-30 19:28N 40°51' E 029°16'0 0.0
2017-May-30 18:58N 40°51' E 029°16'0 0.0
2017-May-30 18:28N 40°51' E 029°16'0 0.0
2017-May-30 17:52N 40°51' E 029°16'0 0.0
2017-May-30 17:10N 40°51' E 029°16'0 0.0
2017-May-30 16:58N 40°51' E 029°16'0 0.0
2017-May-30 16:22N 40°51' E 029°16'0 0.0
2017-May-30 15:58N 40°51' E 029°16'0 0.0
2017-May-30 15:28N 40°51' E 029°16'0 0.0
2017-May-30 14:58N 40°51' E 029°16'0 0.0
2017-May-30 13:52N 40°51' E 029°16'0 0.0
2017-May-30 13:28N 40°51' E 029°16'0 0.0
2017-May-30 12:58N 40°51' E 029°16'0 0.0
2017-May-30 12:16N 40°51' E 029°16'0 0.0
2017-May-30 11:58N 40°51' E 029°16'0 0.0
2017-May-30 11:28N 40°51' E 029°16'0 0.0
2017-May-30 10:58N 40°51' E 029°16'0 0.0
2017-May-30 10:28N 40°51' E 029°16'0 0.0
2017-May-30 09:58N 40°51' E 029°16'0 0.0
2017-May-30 09:10N 40°51' E 029°16'0 0.0
2017-May-30 08:58N 40°51' E 029°16'0 0.0
2017-May-30 08:22N 40°51' E 029°16'0 0.0
2017-May-30 07:58N 40°51' E 029°16'0 0.0
2017-May-30 07:28N 40°51' E 029°16'0 0.0
2017-May-30 06:58N 40°51' E 029°16'0 0.0
2017-May-30 06:28N 40°51' E 029°16'0 0.0
2017-May-30 05:58N 40°51' E 029°16'0 0.0
2017-May-30 05:28N 40°51' E 029°16'0 0.0
2017-May-30 04:58N 40°51' E 029°16'0 0.0
2017-May-30 04:28N 40°51' E 029°16'0 0.0
2017-May-30 03:52N 40°51' E 029°16'0 0.0
2017-May-30 03:28N 40°51' E 029°16'0 0.0
2017-May-30 02:52N 40°51' E 029°16'0 0.0
2017-May-30 02:28N 40°51' E 029°16'0 0.0
2017-May-30 01:58N 40°51' E 029°16'0 0.0
2017-May-30 01:28N 40°51' E 029°16'0 0.0
2017-May-30 00:58N 40°51' E 029°16'0 0.0
2017-May-30 00:28N 40°51' E 029°16'0 0.0
2017-May-29 23:52N 40°51' E 029°16'0 0.0
2017-May-29 23:22N 40°51' E 029°16'0 0.0
2017-May-29 22:58N 40°51' E 029°16'0 0.0
2017-May-29 22:22N 40°51' E 029°16'0 0.0
2017-May-29 21:58N 40°51' E 029°16'0 0.0
2017-May-29 21:28N 40°51' E 029°16'0 0.0
2017-May-29 20:40N 40°51' E 029°16'0 0.0
2017-May-29 20:04N 40°51' E 029°16'0 0.0
2017-May-29 19:58N 40°51' E 029°16'0 0.0
2017-May-29 19:22N 40°51' E 029°16'0 0.0
2017-May-29 18:58N 40°51' E 029°16'0 0.0
2017-May-29 18:28N 40°51' E 029°16'0 0.0
2017-May-29 17:58N 40°51' E 029°16'0 0.0
2017-May-29 17:22N 40°51' E 029°16'0 0.0
2017-May-29 16:46N 40°51' E 029°16'0 0.0
2017-May-29 16:28N 40°51' E 029°16'0 0.0
2017-May-29 15:58N 40°51' E 029°16'0 0.0
2017-May-29 15:28N 40°51' E 029°16'0 0.0
2017-May-29 14:58N 40°51' E 029°16'0 0.0
2017-May-29 14:04N 40°51' E 029°16'0 0.0
2017-May-29 13:22N 40°51' E 029°16'0 0.0
2017-May-29 12:46N 40°51' E 029°16'0 0.0
2017-May-29 12:22N 40°51' E 029°16'0 0.0
2017-May-29 11:58N 40°51' E 029°16'1 0.4
2017-May-29 09:48N 40°51' E 029°17'0 0.0
2017-May-29 09:18N 40°51' E 029°17'0 0.0
2017-May-29 09:00N 40°51' E 029°17'  

Dump ship's entire track history